Blue Diamond, NV

9:28 PM PDT on May 24, 2015 (GMT -0700)
McCarran International | | Change Station
CLOSE
Current Station
Airport
Location: Las Vegas,
Elevation: 2178 ft
Nearby Weather Stations

Elev 2178 ft 36.07 °N, 115.16 °W | Updated 32 minutes ago

Mostly Cloudy
Mostly Cloudy
74 °F
Feels Like 74 °F
N
9
Wind Variable Wind from North

Today
High -- | Low -- °F
--% Chance of Precip.
Yesterday
High -- | Low -- °F
Precip. -- in
5:29 AM 7:47 PM
Waxing Crescent, 45% visible
Pressure 29.74 in
Visibility 10.0 miles
Clouds Mostly Cloudy 10000 ft
Mostly Cloudy 12000 ft
Mostly Cloudy 22000 ft
Dew Point 50 °F
Humidity 43%
Rainfall 0.00 in
Snow Depth Not available.
UV 0 out of 12
Pollen 5.40 out of 12
Air Quality Not available.
Flu Activity Sporadic
METAR KLAS 250356Z 01008KT 10SM BKN100 BKN120 BKN220 23/10 A2979 RMK AO2 SLP070 OCLN LTGIC DSNT W-NW CB DSNT W-N SHRA DSNT W T02330100 $

More Conditions Fewer Conditions

Pressure 29.74 in
Visibility 10.0 miles
Clouds Mostly Cloudy 10000 ft
Mostly Cloudy 12000 ft
Mostly Cloudy 22000 ft
Dew Point 50 °F
Humidity 43%
Rainfall 0.00 in
Snow Depth Not available.
UV 0 out of 12
Pollen 5.40 out of 12
Air Quality Not available.
Flu Activity Sporadic
METAR KLAS 250356Z 01008KT 10SM BKN100 BKN120 BKN220 23/10 A2979 RMK AO2 SLP070 OCLN LTGIC DSNT W-NW CB DSNT W-N SHRA DSNT W T02330100 $

More Conditions Fewer Conditions

10-Day Weather Forecast

Almanac

Astronomy

May. 24, 2015 Rise Set
Actual Time
Civil Twilight
Nautical Twilight
Astronomical Twilight
Moon
Length of Visible Light
Length of Day
Tomorrow will be .
, % of the Moon is Illuminated

Today's Extremes

State Highs State Lows

Community

WunderPhotos

Upload Photos

1,823,953 photos uploaded!

WunderBlogs® & News

Nearby

Air Quality

  Air Quality AQ Index Pollutant
Not available.

Snow Depth

Station Depth Elevation

Earthquake Activity

City Distance Mag. Time & Date
Minimum magnitude displayed is 2.5.

Coastal Water Temperatures

Place Temperature

Stations

Nearby Weather Stations

Station Location Temp. Windchill Dew Point Humidity Wind Precip. Elev Updated Type